sensor_id;sensor_type;location;lat;lon;timestamp;temperature;humidity
15394;DHT22;7795;47.986;11.868;2022-10-04T00:02:05;11.30;78.40
15394;DHT22;7795;47.986;11.868;2022-10-04T00:04:44;11.30;78.50
15394;DHT22;7795;47.986;11.868;2022-10-04T00:07:18;11.30;78.60
15394;DHT22;7795;47.986;11.868;2022-10-04T00:09:49;11.30;78.60
15394;DHT22;7795;47.986;11.868;2022-10-04T00:12:19;11.30;78.50
15394;DHT22;7795;47.986;11.868;2022-10-04T00:14:46;11.20;78.50
15394;DHT22;7795;47.986;11.868;2022-10-04T00:17:19;11.20;78.40
15394;DHT22;7795;47.986;11.868;2022-10-04T00:19:49;11.20;78.40
15394;DHT22;7795;47.986;11.868;2022-10-04T00:22:19;11.20;78.40
15394;DHT22;7795;47.986;11.868;2022-10-04T00:25:17;11.20;78.30
15394;DHT22;7795;47.986;11.868;2022-10-04T00:31:08;11.10;78.50
15394;DHT22;7795;47.986;11.868;2022-10-04T00:33:36;11.10;78.40
15394;DHT22;7795;47.986;11.868;2022-10-04T00:39:37;11.00;78.30
15394;DHT22;7795;47.986;11.868;2022-10-04T00:42:24;10.90;78.20
15394;DHT22;7795;47.986;11.868;2022-10-04T00:44:57;10.90;78.20
15394;DHT22;7795;47.986;11.868;2022-10-04T00:47:28;10.80;78.00
15394;DHT22;7795;47.986;11.868;2022-10-04T00:50:02;10.80;78.00
15394;DHT22;7795;47.986;11.868;2022-10-04T00:52:31;10.70;77.90
15394;DHT22;7795;47.986;11.868;2022-10-04T00:55:05;10.70;77.90
15394;DHT22;7795;47.986;11.868;2022-10-04T00:57:35;10.70;77.90
15394;DHT22;7795;47.986;11.868;2022-10-04T01:00:07;10.60;77.90
15394;DHT22;7795;47.986;11.868;2022-10-04T01:02:37;10.60;78.00
15394;DHT22;7795;47.986;11.868;2022-10-04T01:05:15;10.50;78.00
15394;DHT22;7795;47.986;11.868;2022-10-04T01:07:45;10.50;78.10
15394;DHT22;7795;47.986;11.868;2022-10-04T01:10:17;10.40;78.10
15394;DHT22;7795;47.986;11.868;2022-10-04T01:12:50;10.40;78.30
15394;DHT22;7795;47.986;11.868;2022-10-04T01:15:24;10.30;78.20
15394;DHT22;7795;47.986;11.868;2022-10-04T01:18:06;10.30;78.30
15394;DHT22;7795;47.986;11.868;2022-10-04T01:20:34;10.30;78.50
15394;DHT22;7795;47.986;11.868;2022-10-04T01:23:03;10.20;78.40
15394;DHT22;7795;47.986;11.868;2022-10-04T01:25:43;10.20;78.40
15394;DHT22;7795;47.986;11.868;2022-10-04T01:28:09;10.20;78.80
15394;DHT22;7795;47.986;11.868;2022-10-04T01:30:35;10.10;78.60
15394;DHT22;7795;47.986;11.868;2022-10-04T01:33:01;10.10;78.70
15394;DHT22;7795;47.986;11.868;2022-10-04T01:35:28;10.10;78.80
15394;DHT22;7795;47.986;11.868;2022-10-04T01:37:53;10.10;78.90
15394;DHT22;7795;47.986;11.868;2022-10-04T01:40:21;10.10;78.90
15394;DHT22;7795;47.986;11.868;2022-10-04T01:42:49;10.00;78.90
15394;DHT22;7795;47.986;11.868;2022-10-04T01:45:22;10.00;78.90
15394;DHT22;7795;47.986;11.868;2022-10-04T01:47:52;10.00;78.90
15394;DHT22;7795;47.986;11.868;2022-10-04T01:50:23;10.00;78.80
15394;DHT22;7795;47.986;11.868;2022-10-04T01:52:53;10.00;78.70
15394;DHT22;7795;47.986;11.868;2022-10-04T01:55:24;10.00;78.80
15394;DHT22;7795;47.986;11.868;2022-10-04T01:57:58;10.00;78.80
15394;DHT22;7795;47.986;11.868;2022-10-04T02:00:25;10.00;78.80
15394;DHT22;7795;47.986;11.868;2022-10-04T02:02:54;9.90;78.60
15394;DHT22;7795;47.986;11.868;2022-10-04T02:05:27;9.90;78.60
15394;DHT22;7795;47.986;11.868;2022-10-04T02:07:55;9.90;78.70
15394;DHT22;7795;47.986;11.868;2022-10-04T02:10:23;9.90;78.60
15394;DHT22;7795;47.986;11.868;2022-10-04T02:12:51;9.90;78.50
15394;DHT22;7795;47.986;11.868;2022-10-04T02:15:20;9.80;78.40
15394;DHT22;7795;47.986;11.868;2022-10-04T02:17:48;9.80;78.40
15394;DHT22;7795;47.986;11.868;2022-10-04T02:20:16;9.80;78.40
15394;DHT22;7795;47.986;11.868;2022-10-04T02:22:43;9.80;78.30
15394;DHT22;7795;47.986;11.868;2022-10-04T02:25:11;9.70;78.20
15394;DHT22;7795;47.986;11.868;2022-10-04T02:27:39;9.70;78.90
15394;DHT22;7795;47.986;11.868;2022-10-04T02:30:07;9.70;78.30
15394;DHT22;7795;47.986;11.868;2022-10-04T02:32:33;9.60;78.20
15394;DHT22;7795;47.986;11.868;2022-10-04T02:35:19;9.60;78.20
15394;DHT22;7795;47.986;11.868;2022-10-04T02:37:46;9.50;78.10
15394;DHT22;7795;47.986;11.868;2022-10-04T02:40:17;9.50;78.20
15394;DHT22;7795;47.986;11.868;2022-10-04T02:42:48;9.50;78.30
15394;DHT22;7795;47.986;11.868;2022-10-04T02:45:23;9.50;78.40
15394;DHT22;7795;47.986;11.868;2022-10-04T02:47:57;9.40;78.40
15394;DHT22;7795;47.986;11.868;2022-10-04T02:50:29;9.40;78.40
15394;DHT22;7795;47.986;11.868;2022-10-04T02:52:58;9.40;78.30
15394;DHT22;7795;47.986;11.868;2022-10-04T02:55:27;9.30;78.20
15394;DHT22;7795;47.986;11.868;2022-10-04T02:57:56;9.30;78.20
15394;DHT22;7795;47.986;11.868;2022-10-04T03:00:25;9.20;78.20
15394;DHT22;7795;47.986;11.868;2022-10-04T03:03:14;9.20;78.20
15394;DHT22;7795;47.986;11.868;2022-10-04T03:05:43;9.20;78.40
15394;DHT22;7795;47.986;11.868;2022-10-04T03:08:11;9.10;78.20
15394;DHT22;7795;47.986;11.868;2022-10-04T03:10:37;9.10;78.20
15394;DHT22;7795;47.986;11.868;2022-10-04T03:13:04;9.00;78.30
15394;DHT22;7795;47.986;11.868;2022-10-04T03:15:30;9.00;78.40
15394;DHT22;7795;47.986;11.868;2022-10-04T03:17:57;8.90;78.40
15394;DHT22;7795;47.986;11.868;2022-10-04T03:20:24;8.90;79.20
15394;DHT22;7795;47.986;11.868;2022-10-04T03:22:52;8.90;78.50
15394;DHT22;7795;47.986;11.868;2022-10-04T03:25:23;8.90;78.60
15394;DHT22;7795;47.986;11.868;2022-10-04T03:27:50;8.90;78.50
15394;DHT22;7795;47.986;11.868;2022-10-04T03:30:18;8.80;78.50
15394;DHT22;7795;47.986;11.868;2022-10-04T03:32:47;8.80;78.60
15394;DHT22;7795;47.986;11.868;2022-10-04T03:35:19;8.80;78.50
15394;DHT22;7795;47.986;11.868;2022-10-04T03:37:47;8.70;78.60
15394;DHT22;7795;47.986;11.868;2022-10-04T03:40:13;8.70;78.50
15394;DHT22;7795;47.986;11.868;2022-10-04T03:42:39;8.70;78.60
15394;DHT22;7795;47.986;11.868;2022-10-04T03:45:10;8.70;78.70
15394;DHT22;7795;47.986;11.868;2022-10-04T03:47:39;8.60;78.70
15394;DHT22;7795;47.986;11.868;2022-10-04T03:50:14;8.60;78.70
15394;DHT22;7795;47.986;11.868;2022-10-04T03:52:45;8.60;78.80
15394;DHT22;7795;47.986;11.868;2022-10-04T03:55:14;8.60;78.80
15394;DHT22;7795;47.986;11.868;2022-10-04T03:57:40;8.50;78.80
15394;DHT22;7795;47.986;11.868;2022-10-04T04:00:07;8.50;79.50
15394;DHT22;7795;47.986;11.868;2022-10-04T04:02:37;8.50;78.80
15394;DHT22;7795;47.986;11.868;2022-10-04T04:05:11;8.50;78.90
15394;DHT22;7795;47.986;11.868;2022-10-04T04:07:43;8.40;78.90
15394;DHT22;7795;47.986;11.868;2022-10-04T04:10:17;8.40;79.00
15394;DHT22;7795;47.986;11.868;2022-10-04T04:12:50;8.40;79.10
15394;DHT22;7795;47.986;11.868;2022-10-04T04:15:17;8.40;79.10
15394;DHT22;7795;47.986;11.868;2022-10-04T04:17:46;8.30;79.00
15394;DHT22;7795;47.986;11.868;2022-10-04T04:20:18;8.30;79.00
15394;DHT22;7795;47.986;11.868;2022-10-04T04:22:51;8.30;79.10
15394;DHT22;7795;47.986;11.868;2022-10-04T04:25:19;8.30;79.20
15394;DHT22;7795;47.986;11.868;2022-10-04T04:27:49;8.30;79.20
15394;DHT22;7795;47.986;11.868;2022-10-04T04:30:17;8.30;79.30
15394;DHT22;7795;47.986;11.868;2022-10-04T04:32:48;8.30;79.40
15394;DHT22;7795;47.986;11.868;2022-10-04T04:35:22;8.30;79.40
15394;DHT22;7795;47.986;11.868;2022-10-04T04:38:02;8.30;79.40
15394;DHT22;7795;47.986;11.868;2022-10-04T04:40:28;8.20;79.50
15394;DHT22;7795;47.986;11.868;2022-10-04T04:42:57;8.20;79.40
15394;DHT22;7795;47.986;11.868;2022-10-04T04:45:26;8.20;79.40
15394;DHT22;7795;47.986;11.868;2022-10-04T04:47:57;8.20;79.40
15394;DHT22;7795;47.986;11.868;2022-10-04T04:50:27;8.20;79.50
15394;DHT22;7795;47.986;11.868;2022-10-04T04:52:58;8.20;79.50
15394;DHT22;7795;47.986;11.868;2022-10-04T04:55:31;8.20;79.50
15394;DHT22;7795;47.986;11.868;2022-10-04T04:57:58;8.20;79.50
15394;DHT22;7795;47.986;11.868;2022-10-04T05:00:28;8.10;79.40
15394;DHT22;7795;47.986;11.868;2022-10-04T05:02:57;8.10;79.40
15394;DHT22;7795;47.986;11.868;2022-10-04T05:05:24;8.10;80.10
15394;DHT22;7795;47.986;11.868;2022-10-04T05:08:10;8.10;79.20
15394;DHT22;7795;47.986;11.868;2022-10-04T05:10:38;8.10;79.40
15394;DHT22;7795;47.986;11.868;2022-10-04T05:13:08;8.10;79.30
15394;DHT22;7795;47.986;11.868;2022-10-04T05:15:36;8.10;79.30
15394;DHT22;7795;47.986;11.868;2022-10-04T05:18:15;8.00;79.20
15394;DHT22;7795;47.986;11.868;2022-10-04T05:20:48;8.00;79.50
15394;DHT22;7795;47.986;11.868;2022-10-04T05:23:15;8.00;79.40
15394;DHT22;7795;47.986;11.868;2022-10-04T05:25:41;8.00;79.40
15394;DHT22;7795;47.986;11.868;2022-10-04T05:28:09;8.00;79.50
15394;DHT22;7795;47.986;11.868;2022-10-04T05:30:43;8.00;80.40
15394;DHT22;7795;47.986;11.868;2022-10-04T05:33:19;8.00;79.70
15394;DHT22;7795;47.986;11.868;2022-10-04T05:35:58;7.90;79.60
15394;DHT22;7795;47.986;11.868;2022-10-04T05:38:31;8.00;79.80
15394;DHT22;7795;47.986;11.868;2022-10-04T05:41:03;7.90;79.70
15394;DHT22;7795;47.986;11.868;2022-10-04T05:43:34;7.90;79.70
15394;DHT22;7795;47.986;11.868;2022-10-04T05:46:16;7.90;79.70
15394;DHT22;7795;47.986;11.868;2022-10-04T05:48:50;7.90;79.90
15394;DHT22;7795;47.986;11.868;2022-10-04T05:51:19;8.00;80.00
15394;DHT22;7795;47.986;11.868;2022-10-04T05:53:46;7.90;80.00
15394;DHT22;7795;47.986;11.868;2022-10-04T05:56:24;7.90;80.00
15394;DHT22;7795;47.986;11.868;2022-10-04T05:59:00;8.00;80.40
15394;DHT22;7795;47.986;11.868;2022-10-04T06:01:35;8.10;80.50
15394;DHT22;7795;47.986;11.868;2022-10-04T06:04:17;8.10;80.60
15394;DHT22;7795;47.986;11.868;2022-10-04T06:06:49;8.10;80.70
15394;DHT22;7795;47.986;11.868;2022-10-04T06:09:42;8.10;80.70
15394;DHT22;7795;47.986;11.868;2022-10-04T06:12:14;8.20;81.10
15394;DHT22;7795;47.986;11.868;2022-10-04T06:15:06;8.20;80.90
15394;DHT22;7795;47.986;11.868;2022-10-04T06:17:50;8.30;81.30
15394;DHT22;7795;47.986;11.868;2022-10-04T06:23:27;8.40;81.20
15394;DHT22;7795;47.986;11.868;2022-10-04T06:25:56;8.50;81.00
15394;DHT22;7795;47.986;11.868;2022-10-04T06:28:28;8.50;81.00
15394;DHT22;7795;47.986;11.868;2022-10-04T06:31:14;8.60;81.00
15394;DHT22;7795;47.986;11.868;2022-10-04T06:34:03;8.60;81.00
15394;DHT22;7795;47.986;11.868;2022-10-04T06:36:44;8.70;81.00
15394;DHT22;7795;47.986;11.868;2022-10-04T06:39:31;8.70;81.70
15394;DHT22;7795;47.986;11.868;2022-10-04T06:42:10;8.80;81.10
15394;DHT22;7795;47.986;11.868;2022-10-04T06:44:51;8.90;81.30
15394;DHT22;7795;47.986;11.868;2022-10-04T06:47:39;9.00;81.50
15394;DHT22;7795;47.986;11.868;2022-10-04T06:50:18;9.10;81.60
15394;DHT22;7795;47.986;11.868;2022-10-04T06:53:11;9.20;81.60
15394;DHT22;7795;47.986;11.868;2022-10-04T06:56:12;9.30;81.80
15394;DHT22;7795;47.986;11.868;2022-10-04T06:58:54;9.40;82.30
15394;DHT22;7795;47.986;11.868;2022-10-04T07:01:28;9.50;83.00
15394;DHT22;7795;47.986;11.868;2022-10-04T07:03:59;9.60;82.30
15394;DHT22;7795;47.986;11.868;2022-10-04T07:06:28;9.80;82.50
15394;DHT22;7795;47.986;11.868;2022-10-04T07:08:56;9.90;82.70
15394;DHT22;7795;47.986;11.868;2022-10-04T07:11:28;10.10;82.90
15394;DHT22;7795;47.986;11.868;2022-10-04T07:13:58;10.30;83.30
15394;DHT22;7795;47.986;11.868;2022-10-04T07:16:31;10.40;83.20
15394;DHT22;7795;47.986;11.868;2022-10-04T07:19:12;10.50;83.50
15394;DHT22;7795;47.986;11.868;2022-10-04T07:21:47;10.70;83.70
15394;DHT22;7795;47.986;11.868;2022-10-04T07:24:22;10.90;83.60
15394;DHT22;7795;47.986;11.868;2022-10-04T07:26:51;11.00;83.50
15394;DHT22;7795;47.986;11.868;2022-10-04T07:29:21;11.10;83.40
15394;DHT22;7795;47.986;11.868;2022-10-04T07:31:52;11.30;83.30
15394;DHT22;7795;47.986;11.868;2022-10-04T07:34:28;11.40;83.20
15394;DHT22;7795;47.986;11.868;2022-10-04T07:36:58;11.50;83.10
15394;DHT22;7795;47.986;11.868;2022-10-04T07:39:28;11.60;83.00
15394;DHT22;7795;47.986;11.868;2022-10-04T07:41:58;11.70;83.00
15394;DHT22;7795;47.986;11.868;2022-10-04T07:44:34;11.80;83.00
15394;DHT22;7795;47.986;11.868;2022-10-04T07:47:08;12.00;83.10
15394;DHT22;7795;47.986;11.868;2022-10-04T07:49:39;12.10;83.80
15394;DHT22;7795;47.986;11.868;2022-10-04T07:52:35;12.20;82.80
15394;DHT22;7795;47.986;11.868;2022-10-04T07:55:08;12.30;83.10
15394;DHT22;7795;47.986;11.868;2022-10-04T07:57:41;12.40;82.80
15394;DHT22;7795;47.986;11.868;2022-10-04T08:00:14;12.50;82.70
15394;DHT22;7795;47.986;11.868;2022-10-04T08:02:51;12.60;82.40
15394;DHT22;7795;47.986;11.868;2022-10-04T08:05:21;12.70;82.30
15394;DHT22;7795;47.986;11.868;2022-10-04T08:08:18;12.80;82.20
15394;DHT22;7795;47.986;11.868;2022-10-04T08:10:54;13.00;82.10
15394;DHT22;7795;47.986;11.868;2022-10-04T08:13:32;13.00;81.60
15394;DHT22;7795;47.986;11.868;2022-10-04T08:16:11;13.20;81.40
15394;DHT22;7795;47.986;11.868;2022-10-04T08:18:49;13.20;81.00
15394;DHT22;7795;47.986;11.868;2022-10-04T08:21:27;13.30;80.90
15394;DHT22;7795;47.986;11.868;2022-10-04T08:24:05;13.40;80.80
15394;DHT22;7795;47.986;11.868;2022-10-04T08:26:51;13.50;80.60
15394;DHT22;7795;47.986;11.868;2022-10-04T08:29:38;13.60;80.40
15394;DHT22;7795;47.986;11.868;2022-10-04T08:32:19;13.70;80.50
15394;DHT22;7795;47.986;11.868;2022-10-04T08:35:02;13.80;80.30
15394;DHT22;7795;47.986;11.868;2022-10-04T08:37:38;13.80;79.90
15394;DHT22;7795;47.986;11.868;2022-10-04T08:43:42;14.00;79.40
15394;DHT22;7795;47.986;11.868;2022-10-04T08:49:50;14.10;79.20
15394;DHT22;7795;47.986;11.868;2022-10-04T08:52:37;14.20;79.20
15394;DHT22;7795;47.986;11.868;2022-10-04T09:01:30;14.40;79.40
15394;DHT22;7795;47.986;11.868;2022-10-04T09:04:41;14.50;79.40
15394;DHT22;7795;47.986;11.868;2022-10-04T09:07:56;14.60;79.30
15394;DHT22;7795;47.986;11.868;2022-10-04T09:10:37;14.70;79.00
15394;DHT22;7795;47.986;11.868;2022-10-04T09:13:32;14.80;79.00
15394;DHT22;7795;47.986;11.868;2022-10-04T09:16:14;14.90;78.60
15394;DHT22;7795;47.986;11.868;2022-10-04T09:18:49;15.00;78.40
15394;DHT22;7795;47.986;11.868;2022-10-04T09:21:34;15.00;78.30
15394;DHT22;7795;47.986;11.868;2022-10-04T09:27:04;15.20;78.00
15394;DHT22;7795;47.986;11.868;2022-10-04T09:29:45;15.30;77.90
15394;DHT22;7795;47.986;11.868;2022-10-04T09:32:35;15.40;77.60
15394;DHT22;7795;47.986;11.868;2022-10-04T09:35:28;15.50;77.30
15394;DHT22;7795;47.986;11.868;2022-10-04T09:38:29;15.60;76.60
15394;DHT22;7795;47.986;11.868;2022-10-04T09:44:40;15.70;76.40
15394;DHT22;7795;47.986;11.868;2022-10-04T09:47:34;15.80;76.20
15394;DHT22;7795;47.986;11.868;2022-10-04T09:50:34;15.90;76.90
15394;DHT22;7795;47.986;11.868;2022-10-04T09:53:21;15.90;76.10
15394;DHT22;7795;47.986;11.868;2022-10-04T09:56:12;16.00;76.40
15394;DHT22;7795;47.986;11.868;2022-10-04T10:01:42;16.10;75.80
15394;DHT22;7795;47.986;11.868;2022-10-04T10:04:33;16.20;75.80
15394;DHT22;7795;47.986;11.868;2022-10-04T10:10:09;16.30;75.40
15394;DHT22;7795;47.986;11.868;2022-10-04T10:16:32;16.40;74.90
15394;DHT22;7795;47.986;11.868;2022-10-04T10:19:33;16.50;74.90
15394;DHT22;7795;47.986;11.868;2022-10-04T10:22:18;16.50;75.10
15394;DHT22;7795;47.986;11.868;2022-10-04T10:25:07;16.60;74.90
15394;DHT22;7795;47.986;11.868;2022-10-04T10:27:48;16.70;74.80
15394;DHT22;7795;47.986;11.868;2022-10-04T10:30:22;16.70;74.80
15394;DHT22;7795;47.986;11.868;2022-10-04T10:33:07;16.80;74.60
15394;DHT22;7795;47.986;11.868;2022-10-04T10:35:46;16.90;74.10
15394;DHT22;7795;47.986;11.868;2022-10-04T10:41:38;17.00;74.00
15394;DHT22;7795;47.986;11.868;2022-10-04T10:44:24;17.10;73.70
15394;DHT22;7795;47.986;11.868;2022-10-04T10:47:15;17.20;73.70
15394;DHT22;7795;47.986;11.868;2022-10-04T10:53:15;17.30;73.10
15394;DHT22;7795;47.986;11.868;2022-10-04T10:56:07;17.40;72.40
15394;DHT22;7795;47.986;11.868;2022-10-04T11:08:02;17.60;72.40
15394;DHT22;7795;47.986;11.868;2022-10-04T11:10:56;17.60;72.70
15394;DHT22;7795;47.986;11.868;2022-10-04T11:13:56;17.60;72.30
15394;DHT22;7795;47.986;11.868;2022-10-04T11:19:47;17.80;71.80
15394;DHT22;7795;47.986;11.868;2022-10-04T11:22:45;17.80;71.60
15394;DHT22;7795;47.986;11.868;2022-10-04T11:25:25;17.80;71.70
15394;DHT22;7795;47.986;11.868;2022-10-04T11:28:03;17.90;72.00
15394;DHT22;7795;47.986;11.868;2022-10-04T11:30:51;17.90;71.90
15394;DHT22;7795;47.986;11.868;2022-10-04T11:33:44;17.90;71.50
15394;DHT22;7795;47.986;11.868;2022-10-04T11:36:32;17.90;71.20
15394;DHT22;7795;47.986;11.868;2022-10-04T11:39:20;18.00;71.40
15394;DHT22;7795;47.986;11.868;2022-10-04T11:41:52;17.90;71.50
15394;DHT22;7795;47.986;11.868;2022-10-04T11:44:42;18.00;71.70
15394;DHT22;7795;47.986;11.868;2022-10-04T11:47:27;18.00;70.80
15394;DHT22;7795;47.986;11.868;2022-10-04T11:50:24;18.00;71.10
15394;DHT22;7795;47.986;11.868;2022-10-04T11:53:29;18.00;71.50
15394;DHT22;7795;47.986;11.868;2022-10-04T11:56:18;18.00;71.20
15394;DHT22;7795;47.986;11.868;2022-10-04T11:59:01;18.10;71.50
15394;DHT22;7795;47.986;11.868;2022-10-04T12:01:44;18.10;71.20
15394;DHT22;7795;47.986;11.868;2022-10-04T12:07:41;18.10;70.70
15394;DHT22;7795;47.986;11.868;2022-10-04T12:10:19;18.20;70.80
15394;DHT22;7795;47.986;11.868;2022-10-04T12:13:04;18.20;71.00
15394;DHT22;7795;47.986;11.868;2022-10-04T12:15:50;18.20;70.70
15394;DHT22;7795;47.986;11.868;2022-10-04T12:18:34;18.30;70.50
15394;DHT22;7795;47.986;11.868;2022-10-04T12:21:49;18.30;70.50
15394;DHT22;7795;47.986;11.868;2022-10-04T12:24:27;18.40;70.10
15394;DHT22;7795;47.986;11.868;2022-10-04T12:27:24;18.40;70.40
15394;DHT22;7795;47.986;11.868;2022-10-04T12:30:12;18.50;70.00
15394;DHT22;7795;47.986;11.868;2022-10-04T12:32:43;18.50;70.10
15394;DHT22;7795;47.986;11.868;2022-10-04T12:35:22;18.50;70.20
15394;DHT22;7795;47.986;11.868;2022-10-04T12:38:13;18.50;70.20
15394;DHT22;7795;47.986;11.868;2022-10-04T12:40:45;18.60;69.70
15394;DHT22;7795;47.986;11.868;2022-10-04T12:43:21;18.60;70.10
15394;DHT22;7795;47.986;11.868;2022-10-04T12:46:00;18.60;69.50
15394;DHT22;7795;47.986;11.868;2022-10-04T12:48:42;18.60;69.40
15394;DHT22;7795;47.986;11.868;2022-10-04T12:51:28;18.60;69.40
15394;DHT22;7795;47.986;11.868;2022-10-04T12:53:59;18.60;69.60
15394;DHT22;7795;47.986;11.868;2022-10-04T12:56:45;18.60;69.90
15394;DHT22;7795;47.986;11.868;2022-10-04T12:59:27;18.60;69.60
15394;DHT22;7795;47.986;11.868;2022-10-04T13:02:04;18.60;69.80
15394;DHT22;7795;47.986;11.868;2022-10-04T13:04:37;18.60;69.80
15394;DHT22;7795;47.986;11.868;2022-10-04T13:10:18;18.70;69.10
15394;DHT22;7795;47.986;11.868;2022-10-04T13:13:16;18.70;69.00
15394;DHT22;7795;47.986;11.868;2022-10-04T13:15:52;18.70;68.10
15394;DHT22;7795;47.986;11.868;2022-10-04T13:18:26;18.70;68.20
15394;DHT22;7795;47.986;11.868;2022-10-04T13:20:59;18.70;68.50
15394;DHT22;7795;47.986;11.868;2022-10-04T13:23:38;18.70;68.80
15394;DHT22;7795;47.986;11.868;2022-10-04T13:26:14;18.70;68.70
15394;DHT22;7795;47.986;11.868;2022-10-04T13:28:51;18.80;68.90
15394;DHT22;7795;47.986;11.868;2022-10-04T13:31:26;18.80;69.20
15394;DHT22;7795;47.986;11.868;2022-10-04T13:34:08;18.80;68.70
15394;DHT22;7795;47.986;11.868;2022-10-04T13:36:48;18.80;68.40
15394;DHT22;7795;47.986;11.868;2022-10-04T13:39:27;18.90;68.10
15394;DHT22;7795;47.986;11.868;2022-10-04T13:42:10;18.90;68.70
15394;DHT22;7795;47.986;11.868;2022-10-04T13:44:56;19.00;67.70
15394;DHT22;7795;47.986;11.868;2022-10-04T13:47:41;19.00;67.30
15394;DHT22;7795;47.986;11.868;2022-10-04T13:50:28;19.00;67.20
15394;DHT22;7795;47.986;11.868;2022-10-04T13:53:03;19.00;67.10
15394;DHT22;7795;47.986;11.868;2022-10-04T13:55:58;18.90;67.40
15394;DHT22;7795;47.986;11.868;2022-10-04T13:58:46;19.00;67.70
15394;DHT22;7795;47.986;11.868;2022-10-04T14:01:31;19.00;67.80
15394;DHT22;7795;47.986;11.868;2022-10-04T14:04:18;19.00;67.00
15394;DHT22;7795;47.986;11.868;2022-10-04T14:07:27;19.10;67.20
15394;DHT22;7795;47.986;11.868;2022-10-04T14:10:15;19.10;66.70
15394;DHT22;7795;47.986;11.868;2022-10-04T14:13:09;19.20;67.40
15394;DHT22;7795;47.986;11.868;2022-10-04T14:16:05;19.20;67.10
15394;DHT22;7795;47.986;11.868;2022-10-04T14:22:02;19.30;67.80
15394;DHT22;7795;47.986;11.868;2022-10-04T14:25:06;19.40;67.00
15394;DHT22;7795;47.986;11.868;2022-10-04T14:30:33;19.40;66.50
15394;DHT22;7795;47.986;11.868;2022-10-04T14:33:45;19.40;66.30
15394;DHT22;7795;47.986;11.868;2022-10-04T14:36:44;19.40;65.60
15394;DHT22;7795;47.986;11.868;2022-10-04T14:39:40;19.50;65.60
15394;DHT22;7795;47.986;11.868;2022-10-04T14:42:43;19.50;65.60
15394;DHT22;7795;47.986;11.868;2022-10-04T14:45:27;19.50;65.80
15394;DHT22;7795;47.986;11.868;2022-10-04T14:51:34;19.50;66.00
15394;DHT22;7795;47.986;11.868;2022-10-04T14:54:05;19.50;65.70
15394;DHT22;7795;47.986;11.868;2022-10-04T14:56:55;19.50;66.40
15394;DHT22;7795;47.986;11.868;2022-10-04T14:59:36;19.50;66.10
15394;DHT22;7795;47.986;11.868;2022-10-04T15:02:18;19.50;66.30
15394;DHT22;7795;47.986;11.868;2022-10-04T15:05:18;19.50;66.30
15394;DHT22;7795;47.986;11.868;2022-10-04T15:07:54;19.40;66.30
15394;DHT22;7795;47.986;11.868;2022-10-04T15:10:23;19.40;66.50
15394;DHT22;7795;47.986;11.868;2022-10-04T15:13:00;19.40;66.40
15394;DHT22;7795;47.986;11.868;2022-10-04T15:15:42;19.40;65.90
15394;DHT22;7795;47.986;11.868;2022-10-04T15:18:36;19.40;66.40
15394;DHT22;7795;47.986;11.868;2022-10-04T15:21:19;19.30;66.20
15394;DHT22;7795;47.986;11.868;2022-10-04T15:23:59;19.30;66.60
15394;DHT22;7795;47.986;11.868;2022-10-04T15:26:51;19.30;66.40
15394;DHT22;7795;47.986;11.868;2022-10-04T15:29:27;19.30;66.10
15394;DHT22;7795;47.986;11.868;2022-10-04T15:32:03;19.20;66.50
15394;DHT22;7795;47.986;11.868;2022-10-04T15:34:35;19.20;66.60
15394;DHT22;7795;47.986;11.868;2022-10-04T15:37:13;19.20;66.70
15394;DHT22;7795;47.986;11.868;2022-10-04T15:40:20;19.10;66.80
15394;DHT22;7795;47.986;11.868;2022-10-04T15:43:12;19.10;66.40
15394;DHT22;7795;47.986;11.868;2022-10-04T15:46:08;19.00;66.60
15394;DHT22;7795;47.986;11.868;2022-10-04T15:49:11;18.90;66.90
15394;DHT22;7795;47.986;11.868;2022-10-04T15:52:00;18.90;67.10
15394;DHT22;7795;47.986;11.868;2022-10-04T15:54:43;18.90;67.20
15394;DHT22;7795;47.986;11.868;2022-10-04T15:57:25;18.80;67.50
15394;DHT22;7795;47.986;11.868;2022-10-04T16:00:01;18.80;67.60
15394;DHT22;7795;47.986;11.868;2022-10-04T16:02:46;18.70;67.80
15394;DHT22;7795;47.986;11.868;2022-10-04T16:05:34;18.60;67.90
15394;DHT22;7795;47.986;11.868;2022-10-04T16:08:17;18.60;68.10
15394;DHT22;7795;47.986;11.868;2022-10-04T16:10:58;18.50;68.10
15394;DHT22;7795;47.986;11.868;2022-10-04T16:14:12;18.40;68.00
15394;DHT22;7795;47.986;11.868;2022-10-04T16:17:08;18.30;68.90
15394;DHT22;7795;47.986;11.868;2022-10-04T16:19:55;18.30;68.20
15394;DHT22;7795;47.986;11.868;2022-10-04T16:22:27;18.20;68.10
15394;DHT22;7795;47.986;11.868;2022-10-04T16:24:56;18.20;68.40
15394;DHT22;7795;47.986;11.868;2022-10-04T16:27:57;18.10;68.50
15394;DHT22;7795;47.986;11.868;2022-10-04T16:30:31;18.10;68.70
15394;DHT22;7795;47.986;11.868;2022-10-04T16:33:23;18.00;68.70
15394;DHT22;7795;47.986;11.868;2022-10-04T16:36:08;17.90;68.80
15394;DHT22;7795;47.986;11.868;2022-10-04T16:38:44;17.80;68.90
15394;DHT22;7795;47.986;11.868;2022-10-04T16:41:35;17.80;69.20
15394;DHT22;7795;47.986;11.868;2022-10-04T16:44:08;17.70;69.40
15394;DHT22;7795;47.986;11.868;2022-10-04T16:46:38;17.70;69.70
15394;DHT22;7795;47.986;11.868;2022-10-04T16:49:19;17.60;69.70
15394;DHT22;7795;47.986;11.868;2022-10-04T16:51:59;17.50;70.00
15394;DHT22;7795;47.986;11.868;2022-10-04T16:54:41;17.50;70.10
15394;DHT22;7795;47.986;11.868;2022-10-04T16:57:20;17.40;70.20
15394;DHT22;7795;47.986;11.868;2022-10-04T16:59:53;17.30;70.20
15394;DHT22;7795;47.986;11.868;2022-10-04T17:05:20;17.10;70.60
15394;DHT22;7795;47.986;11.868;2022-10-04T17:08:14;17.00;70.90
15394;DHT22;7795;47.986;11.868;2022-10-04T17:10:57;16.90;70.90
15394;DHT22;7795;47.986;11.868;2022-10-04T17:13:31;16.90;71.00
15394;DHT22;7795;47.986;11.868;2022-10-04T17:16:03;16.80;71.10
15394;DHT22;7795;47.986;11.868;2022-10-04T17:18:39;16.70;71.20
15394;DHT22;7795;47.986;11.868;2022-10-04T17:21:24;16.60;71.30
15394;DHT22;7795;47.986;11.868;2022-10-04T17:24:05;16.50;71.60
15394;DHT22;7795;47.986;11.868;2022-10-04T17:26:41;16.40;71.70
15394;DHT22;7795;47.986;11.868;2022-10-04T17:32:04;16.30;71.90
15394;DHT22;7795;47.986;11.868;2022-10-04T17:34:43;16.20;71.90
15394;DHT22;7795;47.986;11.868;2022-10-04T17:37:20;16.10;72.10
15394;DHT22;7795;47.986;11.868;2022-10-04T17:39:58;16.00;72.20
15394;DHT22;7795;47.986;11.868;2022-10-04T17:42:38;15.90;72.30
15394;DHT22;7795;47.986;11.868;2022-10-04T17:45:24;15.80;72.40
15394;DHT22;7795;47.986;11.868;2022-10-04T17:47:59;15.80;72.80
15394;DHT22;7795;47.986;11.868;2022-10-04T17:50:51;15.70;72.60
15394;DHT22;7795;47.986;11.868;2022-10-04T17:53:43;15.60;72.60
15394;DHT22;7795;47.986;11.868;2022-10-04T17:56:34;15.50;72.60
15394;DHT22;7795;47.986;11.868;2022-10-04T17:59:07;15.40;72.70
15394;DHT22;7795;47.986;11.868;2022-10-04T18:01:39;15.30;72.80
15394;DHT22;7795;47.986;11.868;2022-10-04T18:04:12;15.20;72.70
15394;DHT22;7795;47.986;11.868;2022-10-04T18:06:42;15.10;72.80